Time;durP1;ratioP1;P1;durP2;ratioP2;P2;SDS_P1;SDS_P2;PMS_P1;PMS_P2;Temp;Humidity;BMP_temperature;BMP_pressure;BME280_temperature;BME280_humidity;BME280_pressure;Samples;Min_cycle;Max_cycle;Signal;HPM_P1;HPM_P2
2022/02/25 00:02:11;;;;;;;;;;;1.90;99.90;;;;;;5073751;28;19909;-73
2022/02/25 00:04:36;;;;;;;;;;;1.80;99.90;;;;;;5073358;28;19938;-73
2022/02/25 00:07:02;;;;;;;;;;;1.80;99.90;;;;;;5072393;28;20358;-74
2022/02/25 00:09:28;;;;;;;;;;;1.80;99.90;;;;;;5078787;28;19912;-73
2022/02/25 00:11:53;;;;;;;;;;;1.80;99.90;;;;;;5073458;28;19916;-73
2022/02/25 00:14:19;;;;;;;;;;;1.80;99.90;;;;;;5073206;28;19909;-73
2022/02/25 00:16:45;;;;;;;;;;;1.70;99.90;;;;;;5073335;28;19916;-73
2022/02/25 00:19:11;;;;;;;;;;;1.80;99.90;;;;;;5073277;28;20042;-73
2022/02/25 00:21:37;;;;;;;;;;;1.70;99.90;;;;;;5073204;28;19944;-73
2022/02/25 00:24:02;;;;;;;;;;;1.60;99.90;;;;;;5073049;28;19913;-75
2022/02/25 00:26:28;;;;;;;;;;;1.60;99.90;;;;;;5073309;28;20334;-73
2022/02/25 00:28:53;;;;;;;;;;;1.70;99.90;;;;;;5073127;28;19915;-73
2022/02/25 00:31:19;;;;;;;;;;;1.60;99.90;;;;;;5072977;28;20463;-74
2022/02/25 00:33:44;;;;;;;;;;;1.60;99.90;;;;;;5073050;28;20046;-73
2022/02/25 00:36:10;;;;;;;;;;;1.60;99.90;;;;;;5069616;28;19912;-73
2022/02/25 00:38:35;;;;;;;;;;;1.50;99.90;;;;;;5073640;28;20285;-73
2022/02/25 00:41:01;;;;;;;;;;;1.40;99.90;;;;;;5065986;28;19960;-74
2022/02/25 00:43:26;;;;;;;;;;;1.30;99.90;;;;;;5072557;28;20319;-73
2022/02/25 00:45:52;;;;;;;;;;;1.40;99.90;;;;;;5071562;28;19908;-73
2022/02/25 00:48:17;;;;;;;;;;;1.50;99.90;;;;;;5072573;28;20277;-73
2022/02/25 00:50:44;;;;;;;;;;;1.40;99.90;;;;;;5071515;28;19912;-73
2022/02/25 00:53:09;;;;;;;;;;;1.50;99.90;;;;;;5071787;28;19908;-73
2022/02/25 00:55:35;;;;;;;;;;;1.70;99.90;;;;;;5072658;28;20348;-74
2022/02/25 00:58:00;;;;;;;;;;;1.60;99.90;;;;;;5072368;28;19908;-73
2022/02/25 01:00:26;;;;;;;;;;;1.70;99.90;;;;;;5072481;28;20381;-73
2022/02/25 01:02:52;;;;;;;;;;;1.50;99.90;;;;;;5072274;28;19909;-73
2022/02/25 01:05:18;;;;;;;;;;;1.50;99.90;;;;;;5069266;28;20369;-74
2022/02/25 01:07:44;;;;;;;;;;;1.20;99.90;;;;;;5069680;28;20338;-75
2022/02/25 01:10:11;;;;;;;;;;;1.20;99.90;;;;;;5072722;28;19934;-73
2022/02/25 01:12:36;;;;;;;;;;;1.20;99.90;;;;;;5072348;28;20276;-73
2022/02/25 01:15:03;;;;;;;;;;;1.20;99.90;;;;;;5070768;28;19908;-73
2022/02/25 01:17:31;;;;;;;;;;;1.20;99.90;;;;;;5071233;28;20289;-73
2022/02/25 01:19:57;;;;;;;;;;;1.20;99.90;;;;;;5071509;28;19908;-73
2022/02/25 01:22:23;;;;;;;;;;;1.30;99.90;;;;;;5071316;28;19931;-73
2022/02/25 01:24:48;;;;;;;;;;;1.20;99.90;;;;;;5071108;28;19914;-73
2022/02/25 01:27:14;;;;;;;;;;;1.00;99.90;;;;;;5071348;28;19908;-74
2022/02/25 01:29:40;;;;;;;;;;;1.00;99.90;;;;;;5071367;28;20347;-74
2022/02/25 01:32:06;;;;;;;;;;;1.00;99.90;;;;;;5071139;28;20280;-74
2022/02/25 01:34:31;;;;;;;;;;;1.10;99.90;;;;;;5071052;28;19909;-74
2022/02/25 01:36:57;;;;;;;;;;;1.10;99.90;;;;;;5068584;28;20011;-74
2022/02/25 01:39:22;;;;;;;;;;;0.90;99.90;;;;;;5075297;28;20377;-73
2022/02/25 01:41:47;;;;;;;;;;;0.80;99.90;;;;;;5069484;28;19915;-74
2022/02/25 01:44:21;;;;;;;;;;;0.80;99.90;;;;;;5069545;28;20331;-74
2022/02/25 01:46:51;;;;;;;;;;;0.70;99.90;;;;;;5070953;28;20323;-74
2022/02/25 01:49:17;;;;;;;;;;;0.70;99.90;;;;;;5070914;28;19927;-73
2022/02/25 01:51:43;;;;;;;;;;;0.60;99.90;;;;;;5069546;28;19909;-73
2022/02/25 01:54:08;;;;;;;;;;;0.50;99.90;;;;;;5070777;28;19909;-74
2022/02/25 01:56:37;;;;;;;;;;;0.40;99.90;;;;;;5070916;28;20270;-74
2022/02/25 01:59:03;;;;;;;;;;;0.20;99.90;;;;;;5070807;28;19909;-74
2022/02/25 02:01:28;;;;;;;;;;;0.10;99.90;;;;;;5070776;28;19920;-72
2022/02/25 02:03:57;;;;;;;;;;;0.20;99.90;;;;;;5070806;28;19909;-74
2022/02/25 02:06:22;;;;;;;;;;;0.30;99.90;;;;;;5069461;28;20209;-74
2022/02/25 02:08:48;;;;;;;;;;;0.20;99.90;;;;;;5073138;28;20030;-74
2022/02/25 02:11:33;;;;;;;;;;;0.20;99.90;;;;;;5070746;28;19912;-74
2022/02/25 02:13:59;;;;;;;;;;;0.40;99.90;;;;;;5070527;28;19909;-74
2022/02/25 02:16:25;;;;;;;;;;;0.30;99.90;;;;;;5001220;28;1793141;-74
2022/02/25 02:18:50;;;;;;;;;;;0.40;99.90;;;;;;5071637;28;19909;-74
2022/02/25 02:21:16;;;;;;;;;;;0.40;99.90;;;;;;5071579;28;19913;-74
2022/02/25 02:23:42;;;;;;;;;;;0.40;99.90;;;;;;5081369;28;19991;-74
2022/02/25 02:26:07;;;;;;;;;;;0.30;99.90;;;;;;5071470;28;19916;-74
2022/02/25 02:28:33;;;;;;;;;;;0.20;99.90;;;;;;5071406;28;19909;-74
2022/02/25 02:30:58;;;;;;;;;;;0.40;99.90;;;;;;5070156;28;19990;-74
2022/02/25 02:33:24;;;;;;;;;;;0.50;99.90;;;;;;5071184;28;19909;-74
2022/02/25 02:35:49;;;;;;;;;;;0.40;99.90;;;;;;5066481;28;19913;-73
2022/02/25 02:38:15;;;;;;;;;;;0.20;99.90;;;;;;5071102;28;20016;-74
2022/02/25 02:40:41;;;;;;;;;;;0.00;99.90;;;;;;5071319;28;20379;-74
2022/02/25 02:43:10;;;;;;;;;;;0.00;99.90;;;;;;5070840;28;19913;-74
2022/02/25 02:45:36;;;;;;;;;;;-0.10;99.90;;;;;;5071317;28;19909;-74
2022/02/25 02:48:02;;;;;;;;;;;-0.20;99.90;;;;;;5071338;28;20146;-74
2022/02/25 02:50:27;;;;;;;;;;;-0.10;99.90;;;;;;5071293;28;19958;-74
2022/02/25 02:52:53;;;;;;;;;;;-0.10;99.90;;;;;;5071137;28;19999;-74
2022/02/25 02:55:18;;;;;;;;;;;-0.10;99.90;;;;;;5070879;28;19942;-74
2022/02/25 02:57:44;;;;;;;;;;;-0.30;99.90;;;;;;5067569;28;20345;-74
2022/02/25 03:00:10;;;;;;;;;;;-0.50;99.90;;;;;;5071194;28;19908;-74
2022/02/25 03:02:36;;;;;;;;;;;-0.60;99.90;;;;;;5071178;28;19908;-73
2022/02/25 03:05:01;;;;;;;;;;;-0.60;99.90;;;;;;5069344;28;19909;-73
2022/02/25 03:07:27;;;;;;;;;;;-0.70;99.90;;;;;;5070856;28;19916;-73
2022/02/25 03:09:53;;;;;;;;;;;-0.70;99.90;;;;;;5070956;28;20355;-73
2022/02/25 03:12:18;;;;;;;;;;;-0.70;99.90;;;;;;5070767;28;19914;-73
2022/02/25 03:14:44;;;;;;;;;;;-0.70;99.90;;;;;;5070901;28;19969;-73
2022/02/25 03:17:11;;;;;;;;;;;-0.90;99.90;;;;;;5072550;28;19917;-73
2022/02/25 03:19:36;;;;;;;;;;;-0.80;99.90;;;;;;5071113;28;19917;-74
2022/02/25 03:22:02;;;;;;;;;;;-0.90;99.90;;;;;;5073648;28;20348;-73
2022/02/25 03:24:28;;;;;;;;;;;-1.00;99.90;;;;;;5074151;28;19915;-73
2022/02/25 03:26:53;;;;;;;;;;;-1.00;99.90;;;;;;5074178;28;19966;-73
2022/02/25 03:29:19;;;;;;;;;;;-1.00;99.90;;;;;;5074508;28;19999;-74
2022/02/25 03:31:44;;;;;;;;;;;-1.00;99.90;;;;;;5074254;28;19943;-73
2022/02/25 03:34:10;;;;;;;;;;;-1.30;99.90;;;;;;5074375;28;19913;-73
2022/02/25 03:36:35;;;;;;;;;;;-1.30;99.90;;;;;;5072866;28;19920;-73
2022/02/25 03:39:01;;;;;;;;;;;-1.30;99.90;;;;;;5074129;28;19919;-73
2022/02/25 03:41:27;;;;;;;;;;;-1.30;99.90;;;;;;5073964;28;19938;-73
2022/02/25 03:43:52;;;;;;;;;;;-1.10;99.90;;;;;;5073932;28;19961;-73
2022/02/25 03:46:18;;;;;;;;;;;-1.10;99.90;;;;;;5074149;28;19913;-73
2022/02/25 03:48:44;;;;;;;;;;;-1.10;99.90;;;;;;5073978;28;19987;-73
2022/02/25 03:51:09;;;;;;;;;;;-1.00;99.90;;;;;;5073430;28;19909;-73
2022/02/25 03:53:35;;;;;;;;;;;-1.10;99.90;;;;;;5073516;28;19908;-73
2022/02/25 03:56:00;;;;;;;;;;;-1.20;99.90;;;;;;5073690;28;20270;-73
2022/02/25 03:58:26;;;;;;;;;;;-1.30;99.90;;;;;;5073864;28;19912;-73
2022/02/25 04:00:52;;;;;;;;;;;-1.20;99.90;;;;;;5073839;28;20002;-73
2022/02/25 04:03:17;;;;;;;;;;;-1.30;99.90;;;;;;5073443;28;19920;-73
2022/02/25 04:05:43;;;;;;;;;;;-1.40;99.90;;;;;;5073849;28;20269;-73
2022/02/25 04:08:08;;;;;;;;;;;-1.30;99.90;;;;;;5066998;28;20273;-73
2022/02/25 04:10:35;;;;;;;;;;;-1.50;99.90;;;;;;5073944;28;20009;-73
2022/02/25 04:13:01;;;;;;;;;;;-1.40;99.90;;;;;;5073546;28;19951;-73
2022/02/25 04:15:26;;;;;;;;;;;-1.40;99.90;;;;;;5073173;28;20324;-73
2022/02/25 04:17:52;;;;;;;;;;;-1.40;99.90;;;;;;5073424;28;19948;-73
2022/02/25 04:20:17;;;;;;;;;;;-1.20;99.90;;;;;;5073287;28;19916;-73
2022/02/25 04:22:43;;;;;;;;;;;-1.30;99.90;;;;;;5081285;28;20013;-73
2022/02/25 04:25:09;;;;;;;;;;;-1.40;99.90;;;;;;5072960;28;20357;-73
2022/02/25 04:27:36;;;;;;;;;;;-1.30;99.90;;;;;;5072742;28;20356;-73
2022/02/25 04:30:03;;;;;;;;;;;-1.30;99.90;;;;;;5072832;28;20015;-73
2022/02/25 04:32:29;;;;;;;;;;;-1.40;99.90;;;;;;5073087;28;19908;-73
2022/02/25 04:34:54;;;;;;;;;;;-1.40;99.90;;;;;;5065977;28;19953;-73
2022/02/25 04:37:20;;;;;;;;;;;-1.40;99.90;;;;;;5068924;28;19943;-73
2022/02/25 04:39:45;;;;;;;;;;;-1.40;99.90;;;;;;5072744;28;20292;-72
2022/02/25 04:42:11;;;;;;;;;;;-1.50;99.90;;;;;;5072780;28;19908;-73
2022/02/25 04:44:37;;;;;;;;;;;-1.50;99.90;;;;;;5072659;28;19966;-73
2022/02/25 04:47:03;;;;;;;;;;;-1.40;99.90;;;;;;5072821;28;20450;-74
2022/02/25 04:49:28;;;;;;;;;;;-1.50;99.90;;;;;;5072888;28;19908;-73
2022/02/25 04:51:54;;;;;;;;;;;-1.40;99.90;;;;;;5072702;28;20407;-73
2022/02/25 04:54:19;;;;;;;;;;;-1.50;99.90;;;;;;5072268;28;19919;-73
2022/02/25 04:56:45;;;;;;;;;;;-1.60;99.90;;;;;;5072677;28;19955;-74
2022/02/25 04:59:10;;;;;;;;;;;-1.90;99.90;;;;;;5072637;28;19975;-73
2022/02/25 05:01:36;;;;;;;;;;;-1.90;99.90;;;;;;5072558;28;19919;-73
2022/02/25 05:04:02;;;;;;;;;;;-1.90;99.90;;;;;;5072288;28;19908;-73
2022/02/25 05:06:28;;;;;;;;;;;-1.80;99.90;;;;;;5076791;28;19908;-73
2022/02/25 05:08:54;;;;;;;;;;;-1.80;99.90;;;;;;5072019;28;19961;-73
2022/02/25 05:11:19;;;;;;;;;;;-1.70;99.90;;;;;;5072296;28;19909;-73
2022/02/25 05:13:45;;;;;;;;;;;-1.60;99.90;;;;;;5072125;28;19908;-73
2022/02/25 05:21:38;;;;;;;;;;;-1.30;99.90;;;;;;5072231;28;19962;-73
2022/02/25 05:24:04;;;;;;;;;;;-1.20;99.90;;;;;;5071912;28;20366;-73
2022/02/25 05:26:30;;;;;;;;;;;-1.30;99.90;;;;;;5072187;28;19909;-73
2022/02/25 05:28:55;;;;;;;;;;;-1.20;99.90;;;;;;5072072;28;19909;-73
2022/02/25 05:31:21;;;;;;;;;;;-1.10;99.90;;;;;;5071980;28;19908;-73
2022/02/25 05:33:47;;;;;;;;;;;-1.00;99.90;;;;;;5071722;28;20006;-73
2022/02/25 05:36:14;;;;;;;;;;;-0.90;99.90;;;;;;5072644;28;20042;-72
2022/02/25 05:38:39;;;;;;;;;;;-1.10;99.90;;;;;;5076234;28;20436;-73
2022/02/25 05:41:05;;;;;;;;;;;-1.00;99.90;;;;;;5071568;28;19944;-73
2022/02/25 05:43:30;;;;;;;;;;;-1.10;99.90;;;;;;5071632;28;19908;-72
2022/02/25 05:45:56;;;;;;;;;;;-1.20;99.90;;;;;;5071993;28;19917;-73
2022/02/25 05:48:21;;;;;;;;;;;-1.20;99.90;;;;;;5071751;28;19915;-73
2022/02/25 05:50:47;;;;;;;;;;;-1.20;99.90;;;;;;5070610;28;19908;-73
2022/02/25 05:53:12;;;;;;;;;;;-1.20;99.90;;;;;;5071318;28;19908;-73
2022/02/25 05:55:38;;;;;;;;;;;-1.10;99.90;;;;;;5071819;28;20373;-73
2022/02/25 05:58:03;;;;;;;;;;;-1.20;99.90;;;;;;5071717;28;19909;-73
2022/02/25 06:00:29;;;;;;;;;;;-1.10;99.90;;;;;;5071774;28;20271;-73
2022/02/25 06:02:54;;;;;;;;;;;-1.00;99.90;;;;;;5072029;28;20355;-73
2022/02/25 06:05:20;;;;;;;;;;;-1.10;99.90;;;;;;5071496;28;19909;-72
2022/02/25 06:07:46;;;;;;;;;;;-1.00;99.90;;;;;;5069030;28;19909;-73
2022/02/25 06:10:12;;;;;;;;;;;-1.00;99.90;;;;;;5071669;28;20331;-73
2022/02/25 06:12:38;;;;;;;;;;;-1.00;99.90;;;;;;5071713;28;19962;-73
2022/02/25 06:15:04;;;;;;;;;;;-0.90;99.90;;;;;;5065022;28;19909;-73
2022/02/25 06:17:30;;;;;;;;;;;-0.90;99.90;;;;;;5071151;28;19917;-73
2022/02/25 06:19:55;;;;;;;;;;;-0.70;99.90;;;;;;5071635;28;19977;-73
2022/02/25 06:22:21;;;;;;;;;;;-0.80;99.90;;;;;;5070094;28;19908;-74
2022/02/25 06:24:46;;;;;;;;;;;-0.60;99.90;;;;;;5071620;28;19912;-73
2022/02/25 06:27:12;;;;;;;;;;;-0.90;99.90;;;;;;5071434;28;19940;-73
2022/02/25 06:29:37;;;;;;;;;;;-1.10;99.90;;;;;;5071542;28;19909;-73
2022/02/25 06:32:03;;;;;;;;;;;-1.10;99.90;;;;;;5071228;28;20266;-73
2022/02/25 06:34:28;;;;;;;;;;;-1.10;99.90;;;;;;5071208;28;19966;-73
2022/02/25 06:36:54;;;;;;;;;;;-1.10;99.90;;;;;;5071074;28;19912;-73
2022/02/25 06:39:19;;;;;;;;;;;-1.10;99.90;;;;;;5067133;28;19947;-73
2022/02/25 06:41:45;;;;;;;;;;;-1.20;99.90;;;;;;5070043;28;20266;-72
2022/02/25 06:44:11;;;;;;;;;;;-1.10;99.90;;;;;;5070616;28;19916;-73
2022/02/25 06:46:36;;;;;;;;;;;-1.00;99.90;;;;;;5070751;28;19913;-72
2022/02/25 06:49:02;;;;;;;;;;;-1.10;99.90;;;;;;5070733;28;19913;-73
2022/02/25 06:51:29;;;;;;;;;;;-1.10;99.90;;;;;;5071383;28;19908;-73
2022/02/25 06:53:55;;;;;;;;;;;-1.10;99.90;;;;;;5073434;28;20324;-73
2022/02/25 06:56:21;;;;;;;;;;;-1.00;99.90;;;;;;5074382;28;19941;-73
2022/02/25 06:58:46;;;;;;;;;;;-0.90;99.90;;;;;;5074499;28;20369;-73
2022/02/25 07:01:12;;;;;;;;;;;-0.90;99.90;;;;;;5073946;28;19908;-73
2022/02/25 07:03:38;;;;;;;;;;;-0.90;99.90;;;;;;5072996;28;19912;-73
2022/02/25 07:06:04;;;;;;;;;;;-0.70;99.90;;;;;;5074436;28;19908;-73
2022/02/25 07:08:29;;;;;;;;;;;-0.60;99.90;;;;;;5072815;28;19912;-73
2022/02/25 07:10:55;;;;;;;;;;;-0.70;99.90;;;;;;5077379;28;19908;-73
2022/02/25 07:13:20;;;;;;;;;;;-0.60;99.90;;;;;;5074492;28;19962;-73
2022/02/25 07:15:46;;;;;;;;;;;-0.60;99.90;;;;;;5074430;28;20372;-74
2022/02/25 07:18:15;;;;;;;;;;;-0.50;99.90;;;;;;5075258;28;20588;-73
2022/02/25 07:20:44;;;;;;;;;;;-0.40;99.90;;;;;;5074443;28;19916;-73
2022/02/25 07:23:09;;;;;;;;;;;-0.30;99.90;;;;;;5079745;28;19909;-73
2022/02/25 07:25:35;;;;;;;;;;;-0.20;99.90;;;;;;5075133;28;20254;-73
2022/02/25 07:28:01;;;;;;;;;;;-0.20;99.90;;;;;;5075407;28;19940;-72
2022/02/25 07:30:28;;;;;;;;;;;0.00;99.90;;;;;;5075015;28;19954;-74
2022/02/25 07:32:53;;;;;;;;;;;0.20;99.90;;;;;;5075702;28;20346;-73
2022/02/25 07:35:19;;;;;;;;;;;0.30;99.90;;;;;;5075140;28;19958;-73
2022/02/25 07:37:44;;;;;;;;;;;0.50;99.90;;;;;;5072498;28;20286;-72
2022/02/25 07:40:12;;;;;;;;;;;0.60;99.90;;;;;;5069592;28;19913;-73
2022/02/25 07:42:38;;;;;;;;;;;0.80;99.90;;;;;;5068456;28;19909;-73
2022/02/25 07:45:04;;;;;;;;;;;0.90;99.90;;;;;;5070220;28;19909;-73
2022/02/25 07:47:30;;;;;;;;;;;1.10;99.90;;;;;;5066488;28;20365;-73
2022/02/25 07:49:56;;;;;;;;;;;1.20;99.90;;;;;;5073404;28;20003;-73
2022/02/25 07:52:22;;;;;;;;;;;1.20;99.90;;;;;;5074413;28;19908;-73
2022/02/25 07:54:47;;;;;;;;;;;1.20;99.90;;;;;;5076317;28;19931;-73
2022/02/25 07:57:14;;;;;;;;;;;1.30;99.90;;;;;;5073692;28;19920;-73
2022/02/25 07:59:40;;;;;;;;;;;1.30;99.90;;;;;;5069598;28;20361;-74
2022/02/25 08:02:05;;;;;;;;;;;1.40;99.90;;;;;;5070815;28;20011;-74
2022/02/25 08:04:31;;;;;;;;;;;1.50;99.90;;;;;;5072551;28;19912;-72
2022/02/25 08:06:58;;;;;;;;;;;1.60;99.90;;;;;;5072691;28;19912;-72
2022/02/25 08:09:23;;;;;;;;;;;1.60;99.90;;;;;;5067310;28;19916;-74
2022/02/25 08:11:49;;;;;;;;;;;1.70;99.90;;;;;;5059571;28;20002;-72
2022/02/25 08:14:15;;;;;;;;;;;1.90;99.90;;;;;;5078408;28;19918;-72
2022/02/25 08:16:40;;;;;;;;;;;1.90;99.90;;;;;;5071608;28;19966;-73
2022/02/25 08:19:07;;;;;;;;;;;2.00;99.90;;;;;;5072597;28;20472;-72
2022/02/25 08:21:33;;;;;;;;;;;2.10;99.90;;;;;;5072864;28;20289;-72
2022/02/25 08:23:59;;;;;;;;;;;2.10;99.90;;;;;;5069961;28;19939;-72
2022/02/25 08:26:24;;;;;;;;;;;2.30;99.90;;;;;;5069710;28;19912;-73
2022/02/25 08:28:51;;;;;;;;;;;2.50;99.90;;;;;;5071072;28;20288;-73
2022/02/25 08:31:17;;;;;;;;;;;2.60;99.90;;;;;;5067675;28;19967;-73
2022/02/25 08:33:43;;;;;;;;;;;3.70;99.90;;;;;;5070102;28;19916;-74
2022/02/25 08:36:08;;;;;;;;;;;6.00;99.90;;;;;;5068333;28;19965;-74
2022/02/25 08:38:34;;;;;;;;;;;6.70;99.00;;;;;;5072727;28;19908;-74
2022/02/25 08:41:00;;;;;;;;;;;7.40;97.40;;;;;;5074079;28;19909;-75
2022/02/25 08:43:26;;;;;;;;;;;8.20;95.20;;;;;;5070007;28;19913;-74
2022/02/25 08:45:53;;;;;;;;;;;9.10;93.20;;;;;;5066297;28;19920;-74
2022/02/25 08:48:18;;;;;;;;;;;7.70;93.10;;;;;;5072348;28;20362;-75
2022/02/25 08:50:44;;;;;;;;;;;8.10;92.50;;;;;;5067772;28;19924;-74
2022/02/25 08:53:10;;;;;;;;;;;8.40;92.80;;;;;;5061773;28;19913;-74
2022/02/25 08:55:35;;;;;;;;;;;8.50;91.60;;;;;;5072358;28;19915;-74
2022/02/25 08:58:01;;;;;;;;;;;8.80;91.40;;;;;;5072359;28;19913;-75
2022/02/25 09:00:27;;;;;;;;;;;9.50;90.40;;;;;;5064083;28;20534;-75
2022/02/25 09:02:52;;;;;;;;;;;9.90;89.60;;;;;;5071532;28;19916;-74
2022/02/25 09:05:19;;;;;;;;;;;9.90;87.10;;;;;;5072415;28;19916;-74
2022/02/25 09:07:45;;;;;;;;;;;11.30;84.40;;;;;;5073582;28;19913;-74
2022/02/25 09:10:12;;;;;;;;;;;11.20;81.90;;;;;;5067901;28;19909;-75
2022/02/25 09:12:38;;;;;;;;;;;11.20;78.80;;;;;;5074234;28;19908;-75
2022/02/25 09:15:04;;;;;;;;;;;9.90;84.30;;;;;;5071144;28;20254;-75
2022/02/25 09:17:29;;;;;;;;;;;10.20;81.40;;;;;;5071671;28;19916;-75
2022/02/25 09:19:55;;;;;;;;;;;10.40;81.50;;;;;;5071823;28;19908;-76
2022/02/25 09:22:21;;;;;;;;;;;10.80;78.10;;;;;;5067117;28;20416;-74
2022/02/25 09:24:46;;;;;;;;;;;11.70;77.80;;;;;;5066902;28;19988;-75
2022/02/25 09:27:12;;;;;;;;;;;11.90;76.30;;;;;;5072014;28;19909;-75
2022/02/25 09:29:37;;;;;;;;;;;12.00;73.40;;;;;;5071908;28;20387;-75
2022/02/25 09:32:04;;;;;;;;;;;11.50;72.60;;;;;;5072485;28;19908;-75
2022/02/25 09:34:29;;;;;;;;;;;10.90;76.30;;;;;;5072219;28;19995;-76
2022/02/25 09:36:55;;;;;;;;;;;11.00;73.60;;;;;;5071919;28;20011;-74
2022/02/25 09:39:20;;;;;;;;;;;10.40;73.30;;;;;;5065547;28;20423;-74
2022/02/25 09:41:48;;;;;;;;;;;9.10;77.50;;;;;;5070280;28;19916;-74
2022/02/25 09:44:14;;;;;;;;;;;8.20;80.80;;;;;;5071110;28;20323;-75
2022/02/25 09:46:44;;;;;;;;;;;10.50;78.20;;;;;;5069261;28;19922;-75
2022/02/25 09:49:09;;;;;;;;;;;9.40;78.30;;;;;;5068034;28;19948;-75
2022/02/25 09:51:35;;;;;;;;;;;10.40;78.20;;;;;;5071223;28;20351;-74
2022/02/25 09:54:01;;;;;;;;;;;11.80;75.30;;;;;;5069906;28;19912;-75
2022/02/25 09:56:26;;;;;;;;;;;10.40;77.20;;;;;;5067645;28;19921;-75
2022/02/25 09:58:52;;;;;;;;;;;11.20;75.90;;;;;;5072892;28;19955;-76
2022/02/25 10:01:18;;;;;;;;;;;12.50;73.20;;;;;;5071757;28;19921;-75
2022/02/25 10:03:51;;;;;;;;;;;13.20;69.60;;;;;;5071674;28;19985;-75
2022/02/25 10:06:16;;;;;;;;;;;13.40;69.10;;;;;;5069145;28;19938;-75
2022/02/25 10:08:42;;;;;;;;;;;12.80;69.60;;;;;;5071562;28;19909;-74
2022/02/25 10:11:07;;;;;;;;;;;12.60;67.40;;;;;;5061990;28;20280;-75
2022/02/25 10:13:34;;;;;;;;;;;12.80;68.20;;;;;;5073024;28;20262;-75
2022/02/25 10:16:00;;;;;;;;;;;13.70;65.70;;;;;;5064037;28;19924;-75
2022/02/25 10:18:27;;;;;;;;;;;11.80;71.60;;;;;;5067707;28;19948;-74
2022/02/25 10:21:00;;;;;;;;;;;12.90;68.30;;;;;;5066224;28;20010;-74
2022/02/25 10:23:27;;;;;;;;;;;11.90;71.50;;;;;;5069635;28;20281;-74
2022/02/25 10:26:14;;;;;;;;;;;12.30;69.50;;;;;;5066499;28;19924;-75
2022/02/25 10:28:41;;;;;;;;;;;14.10;66.00;;;;;;5073482;28;19908;-75
2022/02/25 10:31:22;;;;;;;;;;;13.70;66.80;;;;;;5072045;28;19912;-74
2022/02/25 10:33:59;;;;;;;;;;;13.60;65.10;;;;;;5061089;28;19990;-75
2022/02/25 10:36:34;;;;;;;;;;;13.40;65.50;;;;;;5068520;28;19947;-74
2022/02/25 10:39:00;;;;;;;;;;;10.40;71.90;;;;;;5076655;28;19909;-75
2022/02/25 10:41:25;;;;;;;;;;;11.50;70.10;;;;;;5075055;28;19912;-74
2022/02/25 10:43:51;;;;;;;;;;;10.40;69.60;;;;;;5068136;28;19913;-74
2022/02/25 10:46:16;;;;;;;;;;;7.70;76.50;;;;;;5074852;28;20570;-74
2022/02/25 10:48:46;;;;;;;;;;;11.30;74.30;;;;;;5075091;28;20311;-74
2022/02/25 10:51:20;;;;;;;;;;;12.10;70.00;;;;;;5074655;28;19916;-74
2022/02/25 10:53:49;;;;;;;;;;;13.40;67.70;;;;;;5074672;28;19940;-74
2022/02/25 10:56:16;;;;;;;;;;;13.10;65.90;;;;;;5074913;28;19916;-74
2022/02/25 10:58:43;;;;;;;;;;;14.60;63.10;;;;;;5075025;28;19913;-76
2022/02/25 11:01:11;;;;;;;;;;;14.40;62.20;;;;;;5068838;28;19999;-74
2022/02/25 11:03:37;;;;;;;;;;;14.40;58.90;;;;;;5073352;28;20329;-75
2022/02/25 11:06:06;;;;;;;;;;;14.70;60.00;;;;;;5072374;28;19909;-74
2022/02/25 11:08:32;;;;;;;;;;;12.90;63.20;;;;;;5078675;28;20737;-75
2022/02/25 11:10:58;;;;;;;;;;;14.10;60.50;;;;;;5067580;28;20078;-75
2022/02/25 11:13:23;;;;;;;;;;;15.40;59.70;;;;;;5079090;28;19946;-75
2022/02/25 11:15:49;;;;;;;;;;;16.20;56.90;;;;;;5074248;28;19917;-75
2022/02/25 11:18:15;;;;;;;;;;;15.20;57.00;;;;;;5074763;28;19908;-74
2022/02/25 11:20:40;;;;;;;;;;;12.40;61.40;;;;;;5074419;28;19916;-75
2022/02/25 11:23:08;;;;;;;;;;;11.40;62.00;;;;;;5073969;28;19912;-75
2022/02/25 11:25:34;;;;;;;;;;;12.50;60.80;;;;;;5074627;28;19909;-75
2022/02/25 11:28:00;;;;;;;;;;;13.50;59.80;;;;;;5070555;28;19916;-74
2022/02/25 11:30:31;;;;;;;;;;;14.90;57.90;;;;;;5074508;28;19931;-74
2022/02/25 11:33:01;;;;;;;;;;;10.50;64.40;;;;;;5074665;28;20421;-74
2022/02/25 11:35:30;;;;;;;;;;;7.90;70.30;;;;;;5065179;28;19970;-74
2022/02/25 11:38:03;;;;;;;;;;;7.00;72.90;;;;;;5074038;28;19908;-74
2022/02/25 11:40:47;;;;;;;;;;;6.80;74.70;;;;;;5077763;28;19947;-75
2022/02/25 11:43:13;;;;;;;;;;;6.60;74.60;;;;;;5074068;28;19908;-74
2022/02/25 11:45:49;;;;;;;;;;;6.70;74.40;;;;;;5069893;28;20300;-74
2022/02/25 11:48:17;;;;;;;;;;;6.70;74.50;;;;;;5073840;28;19915;-74
2022/02/25 11:50:42;;;;;;;;;;;7.00;74.70;;;;;;5074058;28;19912;-74
2022/02/25 11:53:22;;;;;;;;;;;7.70;75.10;;;;;;5073397;28;19912;-74
2022/02/25 11:55:48;;;;;;;;;;;7.60;74.90;;;;;;5064509;28;19925;-75
2022/02/25 11:58:32;;;;;;;;;;;6.90;73.80;;;;;;5073634;28;20008;-74
2022/02/25 12:01:06;;;;;;;;;;;6.70;75.30;;;;;;5074300;28;20357;-74
2022/02/25 12:03:35;;;;;;;;;;;6.60;75.60;;;;;;5074471;28;20424;-74
2022/02/25 12:06:01;;;;;;;;;;;7.00;76.70;;;;;;5072276;28;19916;-74
2022/02/25 12:08:27;;;;;;;;;;;7.70;74.30;;;;;;5075753;28;19974;-74
2022/02/25 12:10:53;;;;;;;;;;;7.30;73.80;;;;;;5073607;28;20350;-74
2022/02/25 12:13:21;;;;;;;;;;;7.60;74.80;;;;;;5072250;28;19980;-74
2022/02/25 12:15:49;;;;;;;;;;;7.40;77.00;;;;;;5072585;28;20551;-74
2022/02/25 12:18:16;;;;;;;;;;;7.10;76.70;;;;;;5072777;28;19966;-74
2022/02/25 12:20:45;;;;;;;;;;;6.80;78.40;;;;;;5072823;28;20427;-74
2022/02/25 12:23:11;;;;;;;;;;;6.90;78.50;;;;;;5072311;28;19951;-74
2022/02/25 12:25:39;;;;;;;;;;;6.50;76.70;;;;;;5072578;28;20354;-74
2022/02/25 12:28:05;;;;;;;;;;;6.80;78.10;;;;;;5072474;28;19909;-74
2022/02/25 12:30:42;;;;;;;;;;;7.10;77.50;;;;;;5072258;28;19915;-74
2022/02/25 12:33:26;;;;;;;;;;;6.50;76.20;;;;;;5072027;28;20437;-74
2022/02/25 12:35:52;;;;;;;;;;;6.30;78.40;;;;;;5061978;28;19919;-74
2022/02/25 12:38:19;;;;;;;;;;;6.00;79.20;;;;;;5076603;28;20338;-75
2022/02/25 12:40:45;;;;;;;;;;;5.80;81.10;;;;;;5072218;28;19908;-74
2022/02/25 12:43:14;;;;;;;;;;;5.90;80.60;;;;;;5071622;28;19912;-74
2022/02/25 12:45:39;;;;;;;;;;;5.80;82.50;;;;;;5059215;28;19912;-74
2022/02/25 12:48:05;;;;;;;;;;;5.80;81.70;;;;;;5071833;28;20380;-74
2022/02/25 12:50:30;;;;;;;;;;;6.30;81.70;;;;;;5071368;28;19908;-74
2022/02/25 12:53:03;;;;;;;;;;;6.60;80.50;;;;;;5072075;28;19920;-73
2022/02/25 12:55:28;;;;;;;;;;;6.20;79.90;;;;;;5071498;28;20390;-75
2022/02/25 12:57:54;;;;;;;;;;;6.10;80.20;;;;;;5062796;28;19917;-74
2022/02/25 13:00:20;;;;;;;;;;;6.10;79.40;;;;;;5054936;28;20403;-74
2022/02/25 13:02:55;;;;;;;;;;;5.90;81.00;;;;;;5064038;28;19916;-74
2022/02/25 13:05:21;;;;;;;;;;;6.20;82.50;;;;;;5065495;28;19912;-76
2022/02/25 13:07:56;;;;;;;;;;;5.70;81.10;;;;;;5064079;28;20400;-76
2022/02/25 13:10:29;;;;;;;;;;;5.80;82.40;;;;;;5064591;28;20306;-74
2022/02/25 13:12:55;;;;;;;;;;;5.80;81.70;;;;;;5072220;28;19908;-74
2022/02/25 13:15:27;;;;;;;;;;;5.50;81.40;;;;;;5070058;28;19915;-74
2022/02/25 13:17:53;;;;;;;;;;;5.50;82.10;;;;;;5071542;28;20132;-74
2022/02/25 13:20:18;;;;;;;;;;;5.70;81.70;;;;;;5070150;28;20424;-74
2022/02/25 13:22:45;;;;;;;;;;;5.70;80.80;;;;;;5071308;28;19909;-74
2022/02/25 13:25:12;;;;;;;;;;;5.90;82.00;;;;;;5062472;28;19917;-74
2022/02/25 13:27:37;;;;;;;;;;;5.80;81.40;;;;;;5066811;28;19913;-74
2022/02/25 13:30:09;;;;;;;;;;;5.90;82.20;;;;;;5071295;28;20357;-74
2022/02/25 13:32:34;;;;;;;;;;;5.90;81.30;;;;;;5071251;28;20015;-74
2022/02/25 13:35:00;;;;;;;;;;;5.70;83.50;;;;;;5070711;28;20404;-74
2022/02/25 13:37:25;;;;;;;;;;;5.70;84.20;;;;;;5067623;28;19919;-74
2022/02/25 13:39:51;;;;;;;;;;;5.70;84.50;;;;;;5072456;28;19977;-74
2022/02/25 13:42:30;;;;;;;;;;;6.20;84.80;;;;;;5071039;28;20269;-74
2022/02/25 13:44:55;;;;;;;;;;;6.40;83.90;;;;;;5069592;28;19909;-76
2022/02/25 13:52:56;;;;;;;;;;;6.40;83.30;;;;;;5065404;28;20360;-74
2022/02/25 13:55:23;;;;;;;;;;;5.90;83.90;;;;;;5070803;28;19908;-74
2022/02/25 13:57:54;;;;;;;;;;;5.00;87.80;;;;;;5070721;28;19919;-74
2022/02/25 14:00:22;;;;;;;;;;;4.70;90.70;;;;;;5059034;28;20373;-74
2022/02/25 14:02:49;;;;;;;;;;;4.40;92.70;;;;;;5066137;28;19936;-75
2022/02/25 14:05:16;;;;;;;;;;;4.50;94.60;;;;;;5070629;28;19943;-74
2022/02/25 14:07:46;;;;;;;;;;;4.40;95.90;;;;;;5064871;28;19909;-74
2022/02/25 14:10:24;;;;;;;;;;;4.30;97.20;;;;;;5071506;28;19916;-74
2022/02/25 14:12:49;;;;;;;;;;;4.20;98.30;;;;;;5068105;28;19956;-75
2022/02/25 14:15:15;;;;;;;;;;;4.50;98.80;;;;;;5070343;28;19948;-74
2022/02/25 14:17:42;;;;;;;;;;;4.50;97.30;;;;;;5070937;28;19919;-74
2022/02/25 14:20:12;;;;;;;;;;;4.70;98.30;;;;;;5070829;28;19916;-74
2022/02/25 14:22:47;;;;;;;;;;;4.70;96.30;;;;;;5070802;28;19909;-74
2022/02/25 14:25:20;;;;;;;;;;;4.50;96.20;;;;;;5069301;28;20473;-74
2022/02/25 14:27:58;;;;;;;;;;;4.40;97.10;;;;;;5070806;28;19908;-74
2022/02/25 14:30:24;;;;;;;;;;;4.00;97.80;;;;;;5064282;28;19995;-74
2022/02/25 14:32:53;;;;;;;;;;;3.90;98.10;;;;;;5070649;28;20258;-74